createdAt,value
2023-06-03T00:02:06.433Z,1.70
2023-06-03T00:04:34.018Z,1.65
2023-06-03T00:07:01.389Z,1.60
2023-06-03T00:09:28.770Z,1.55
2023-06-03T00:11:56.164Z,1.92
2023-06-03T00:14:23.637Z,1.30
2023-06-03T00:16:51.527Z,1.15
2023-06-03T00:19:19.792Z,1.67
2023-06-03T00:21:50.676Z,1.58
2023-06-03T00:24:24.291Z,2.00
2023-06-03T00:26:52.807Z,1.80
2023-06-03T00:29:21.139Z,2.03
2023-06-03T00:31:48.886Z,2.13
2023-06-03T00:34:16.454Z,1.88
2023-06-03T00:36:43.908Z,1.90
2023-06-03T00:39:11.395Z,1.00
2023-06-03T00:41:39.386Z,1.88
2023-06-03T00:44:06.793Z,1.90
2023-06-03T00:46:38.009Z,1.60
2023-06-03T00:49:05.619Z,1.17
2023-06-03T00:51:34.812Z,3.10
2023-06-03T00:54:02.353Z,1.33
2023-06-03T00:56:34.132Z,1.27
2023-06-03T00:59:02.166Z,1.40
2023-06-03T01:01:30.327Z,1.63
2023-06-03T01:03:57.785Z,1.63
2023-06-03T01:06:49.518Z,0.90
2023-06-03T01:09:35.556Z,2.45
2023-06-03T01:12:11.966Z,1.63
2023-06-03T01:14:51.119Z,1.35
2023-06-03T01:17:21.813Z,1.80
2023-06-03T01:19:52.376Z,0.90
2023-06-03T01:22:25.749Z,1.45
2023-06-03T01:25:05.451Z,1.25
2023-06-03T01:27:33.193Z,0.80
2023-06-03T01:30:03.673Z,1.10
2023-06-03T01:32:33.401Z,1.75
2023-06-03T01:35:01.214Z,1.10
2023-06-03T01:37:28.955Z,1.88
2023-06-03T01:39:57.317Z,1.13
2023-06-03T01:42:24.845Z,1.15
2023-06-03T01:44:53.910Z,1.45
2023-06-03T01:47:21.508Z,0.90
2023-06-03T01:49:48.905Z,1.58
2023-06-03T01:52:17.309Z,0.95
2023-06-03T01:54:44.805Z,1.17
2023-06-03T01:57:12.515Z,1.27
2023-06-03T01:59:39.873Z,1.42
2023-06-03T02:02:07.326Z,1.20
2023-06-03T02:04:34.600Z,2.47
2023-06-03T02:07:02.014Z,1.90
2023-06-03T02:09:31.422Z,1.77
2023-06-03T02:12:00.697Z,1.50
2023-06-03T02:14:30.295Z,2.72
2023-06-03T02:16:57.903Z,1.27
2023-06-03T02:19:27.002Z,1.08
2023-06-03T02:21:58.621Z,0.98
2023-06-03T02:24:30.199Z,1.80
2023-06-03T02:27:03.100Z,1.88
2023-06-03T02:29:40.039Z,1.50
2023-06-03T02:32:09.387Z,1.73
2023-06-03T02:34:36.848Z,1.42
2023-06-03T02:37:05.402Z,1.35
2023-06-03T02:39:32.670Z,1.50
2023-06-03T02:41:59.988Z,2.67
2023-06-03T02:44:27.322Z,2.00
2023-06-03T02:46:54.653Z,1.60
2023-06-03T02:49:22.030Z,2.80
2023-06-03T02:51:50.102Z,1.85
2023-06-03T02:54:17.636Z,1.40
2023-06-03T02:56:45.009Z,1.67
2023-06-03T02:59:12.575Z,2.53
2023-06-03T03:01:40.041Z,1.48
2023-06-03T03:04:07.614Z,1.20
2023-06-03T03:06:38.532Z,1.83
2023-06-03T03:09:05.922Z,1.50
2023-06-03T03:11:38.381Z,1.58
2023-06-03T03:14:06.783Z,1.45
2023-06-03T03:16:36.898Z,1.40
2023-06-03T03:19:05.215Z,1.20
2023-06-03T03:21:32.709Z,1.13
2023-06-03T03:24:03.975Z,1.77
2023-06-03T03:26:34.881Z,1.55
2023-06-03T03:29:02.286Z,1.30
2023-06-03T03:31:31.256Z,0.70
2023-06-03T03:33:59.322Z,1.52
2023-06-03T03:36:30.325Z,1.33
2023-06-03T03:39:07.797Z,1.38
2023-06-03T03:44:16.117Z,1.42
2023-06-03T03:46:59.736Z,1.08
2023-06-03T03:49:31.048Z,1.48
2023-06-03T03:54:36.654Z,1.65
2023-06-03T03:57:14.452Z,1.63
2023-06-03T03:59:47.716Z,1.13
2023-06-03T04:02:16.222Z,1.23
2023-06-03T04:04:47.742Z,1.00
2023-06-03T04:07:21.639Z,1.83
2023-06-03T04:09:50.266Z,1.43
2023-06-03T04:12:22.278Z,1.25
2023-06-03T04:14:51.625Z,1.52
2023-06-03T04:17:23.086Z,1.95
2023-06-03T04:19:50.767Z,1.85
2023-06-03T04:22:25.306Z,2.58
2023-06-03T04:25:04.616Z,1.83
2023-06-03T04:27:41.916Z,1.65
2023-06-03T04:30:11.922Z,1.52
2023-06-03T04:32:39.393Z,2.00
2023-06-03T04:35:07.295Z,1.45
2023-06-03T04:37:36.754Z,1.70
2023-06-03T04:40:06.830Z,3.15
2023-06-03T04:42:34.415Z,1.65
2023-06-03T04:45:03.214Z,2.72
2023-06-03T04:47:35.985Z,2.45
2023-06-03T04:50:06.042Z,1.77
2023-06-03T04:52:35.832Z,2.65
2023-06-03T04:55:05.028Z,1.60
2023-06-03T04:57:32.828Z,3.05
2023-06-03T05:00:06.639Z,1.95
2023-06-03T05:02:34.306Z,1.75
2023-06-03T05:05:02.633Z,2.00
2023-06-03T05:07:31.155Z,2.50
2023-06-03T05:09:58.773Z,2.90
2023-06-03T05:12:27.323Z,3.22
2023-06-03T05:14:54.772Z,2.58
2023-06-03T05:17:22.490Z,1.50
2023-06-03T05:19:49.973Z,2.72
2023-06-03T05:22:17.604Z,2.35
2023-06-03T05:24:45.042Z,2.67
2023-06-03T05:27:12.432Z,2.70
2023-06-03T05:29:39.731Z,2.35
2023-06-03T05:32:07.944Z,2.35
2023-06-03T05:34:36.159Z,1.80
2023-06-03T05:37:04.349Z,2.60
2023-06-03T05:39:32.287Z,2.70
2023-06-03T05:42:01.318Z,2.10
2023-06-03T05:44:29.020Z,3.25
2023-06-03T05:46:56.580Z,3.92
2023-06-03T05:49:25.249Z,2.42
2023-06-03T05:51:52.690Z,4.53
2023-06-03T05:54:20.156Z,2.65
2023-06-03T05:56:47.624Z,3.67
2023-06-03T05:59:15.058Z,3.20
2023-06-03T06:01:44.835Z,5.57
2023-06-03T06:04:13.235Z,2.92
2023-06-03T06:06:40.830Z,3.25
2023-06-03T06:09:08.118Z,4.93
2023-06-03T06:11:36.448Z,3.03
2023-06-03T06:14:03.899Z,2.70
2023-06-03T06:16:31.371Z,5.03
2023-06-03T06:18:59.805Z,3.85
2023-06-03T06:21:29.880Z,3.55
2023-06-03T06:23:57.508Z,5.63
2023-06-03T06:26:25.140Z,3.45
2023-06-03T06:28:55.755Z,4.25
2023-06-03T06:31:23.356Z,2.80
2023-06-03T06:33:54.532Z,4.53
2023-06-03T06:36:43.170Z,3.50
2023-06-03T06:39:46.684Z,3.75
2023-06-03T06:42:40.927Z,3.45
2023-06-03T06:45:29.655Z,2.67
2023-06-03T06:48:12.139Z,4.10
2023-06-03T06:50:54.415Z,3.58
2023-06-03T06:53:27.342Z,3.35
2023-06-03T06:56:02.778Z,4.30
2023-06-03T06:59:02.521Z,3.67
2023-06-03T07:01:29.937Z,2.47
2023-06-03T07:03:58.827Z,2.70
2023-06-03T07:06:26.508Z,2.97
2023-06-03T07:09:07.494Z,2.20
2023-06-03T07:11:47.273Z,2.60
2023-06-03T07:14:17.086Z,2.45
2023-06-03T07:16:44.706Z,2.85
2023-06-03T07:19:12.773Z,2.45
2023-06-03T07:21:44.910Z,1.95
2023-06-03T07:24:16.443Z,2.47
2023-06-03T07:29:16.261Z,2.15
2023-06-03T07:31:44.776Z,2.38
2023-06-03T07:34:21.939Z,3.53
2023-06-03T07:36:56.067Z,2.67
2023-06-03T07:39:23.459Z,1.98
2023-06-03T07:41:59.108Z,2.90
2023-06-03T07:44:45.810Z,2.30
2023-06-03T07:47:18.180Z,2.55
2023-06-03T07:49:49.887Z,2.33
2023-06-03T07:52:22.111Z,1.55
2023-06-03T07:54:50.561Z,1.67
2023-06-03T07:57:18.334Z,1.98
2023-06-03T07:59:57.248Z,2.45
2023-06-03T08:02:25.251Z,1.90
2023-06-03T08:04:57.514Z,1.80
2023-06-03T08:07:26.456Z,2.33
2023-06-03T08:09:53.981Z,2.72
2023-06-03T08:12:29.647Z,1.42
2023-06-03T08:14:57.820Z,1.67
2023-06-03T08:17:40.666Z,1.88
2023-06-03T08:20:11.705Z,2.17
2023-06-03T08:22:44.006Z,2.05
2023-06-03T08:25:12.222Z,1.25
2023-06-03T08:27:39.770Z,1.65
2023-06-03T08:30:08.153Z,2.13
2023-06-03T08:32:41.596Z,2.58
2023-06-03T08:35:10.794Z,1.48
2023-06-03T08:37:38.611Z,2.13
2023-06-03T08:40:13.221Z,2.65
2023-06-03T08:42:44.816Z,1.67
2023-06-03T08:45:13.088Z,2.58
2023-06-03T08:47:40.408Z,2.65
2023-06-03T08:50:11.905Z,2.13
2023-06-03T08:52:40.737Z,2.58
2023-06-03T08:55:10.910Z,2.35
2023-06-03T08:57:46.420Z,1.50
2023-06-03T09:00:16.941Z,1.35
2023-06-03T09:02:44.573Z,1.98
2023-06-03T09:05:12.240Z,1.42
2023-06-03T09:07:40.991Z,2.47
2023-06-03T09:10:09.740Z,2.95
2023-06-03T09:12:38.670Z,2.42
2023-06-03T09:15:07.327Z,2.10
2023-06-03T09:17:37.005Z,2.10
2023-06-03T09:20:06.723Z,1.45
2023-06-03T09:22:39.886Z,1.70
2023-06-03T09:25:07.903Z,2.00
2023-06-03T09:27:35.975Z,1.52
2023-06-03T09:30:04.653Z,1.17
2023-06-03T09:32:32.896Z,1.35
2023-06-03T09:35:05.845Z,1.52
2023-06-03T09:37:34.258Z,1.77
2023-06-03T09:40:03.029Z,1.77
2023-06-03T09:42:44.172Z,2.20
2023-06-03T09:45:28.486Z,1.85
2023-06-03T09:47:56.117Z,1.58
2023-06-03T09:50:25.058Z,1.65
2023-06-03T09:52:52.529Z,1.40
2023-06-03T09:55:21.114Z,1.95
2023-06-03T09:58:06.063Z,1.30
2023-06-03T10:00:56.416Z,1.30
2023-06-03T10:03:26.716Z,1.80
2023-06-03T10:05:54.260Z,1.83
2023-06-03T10:08:33.839Z,1.10
2023-06-03T10:11:03.066Z,1.80
2023-06-03T10:13:30.737Z,1.80
2023-06-03T10:15:59.745Z,1.52
2023-06-03T10:18:41.334Z,2.00
2023-06-03T10:21:13.533Z,1.48
2023-06-03T10:23:42.934Z,1.73
2023-06-03T10:26:10.877Z,1.55
2023-06-03T10:28:39.677Z,1.23
2023-06-03T10:31:09.248Z,2.20
2023-06-03T10:33:38.961Z,1.75
2023-06-03T10:36:07.937Z,1.90
2023-06-03T10:38:35.674Z,1.65
2023-06-03T10:41:03.455Z,1.42
2023-06-03T10:43:33.101Z,1.98
2023-06-03T10:46:02.503Z,1.70
2023-06-03T10:48:32.915Z,2.33
2023-06-03T10:51:18.453Z,1.20
2023-06-03T10:54:03.273Z,2.08
2023-06-03T10:56:31.030Z,1.48
2023-06-03T10:59:07.795Z,1.52
2023-06-03T11:02:02.225Z,1.67
2023-06-03T11:04:36.801Z,1.30
2023-06-03T11:07:06.310Z,1.60
2023-06-03T11:09:37.704Z,1.70
2023-06-03T11:12:08.020Z,1.90
2023-06-03T11:14:39.389Z,2.75
2023-06-03T11:17:07.477Z,2.08
2023-06-03T11:19:37.498Z,2.35
2023-06-03T11:22:36.351Z,2.20
2023-06-03T11:25:03.913Z,1.52
2023-06-03T11:27:32.564Z,1.50
2023-06-03T11:30:01.649Z,1.45
2023-06-03T11:32:34.792Z,1.83
2023-06-03T11:35:04.517Z,2.13
2023-06-03T11:37:45.017Z,1.58
2023-06-03T11:40:16.323Z,1.25
2023-06-03T11:42:49.589Z,1.80
2023-06-03T11:45:23.242Z,1.45
2023-06-03T11:47:58.374Z,1.60
2023-06-03T11:50:33.118Z,1.48
2023-06-03T11:53:01.459Z,1.25
2023-06-03T11:55:36.585Z,0.98
2023-06-03T11:58:15.215Z,1.30
2023-06-03T12:00:42.472Z,1.35
2023-06-03T12:03:16.813Z,1.33
2023-06-03T12:08:20.901Z,1.08
2023-06-03T12:10:48.554Z,1.27
2023-06-03T12:13:15.898Z,1.00
2023-06-03T12:15:49.867Z,1.52
2023-06-03T12:18:17.350Z,0.73
2023-06-03T12:20:49.236Z,0.88
2023-06-03T12:23:24.496Z,1.08
2023-06-03T12:25:57.010Z,1.20
2023-06-03T12:28:26.285Z,1.50
2023-06-03T12:30:53.937Z,1.05
2023-06-03T12:33:21.794Z,1.00
2023-06-03T12:35:56.709Z,0.90
2023-06-03T12:38:25.216Z,0.63
2023-06-03T12:40:56.466Z,0.93
2023-06-03T12:43:24.057Z,0.70
2023-06-03T12:45:52.216Z,0.90
2023-06-03T12:48:39.801Z,0.70
2023-06-03T12:51:27.127Z,0.85
2023-06-03T12:53:56.895Z,0.82
2023-06-03T12:56:28.738Z,0.95
2023-06-03T12:58:56.751Z,0.98
2023-06-03T13:01:24.789Z,1.25
2023-06-03T13:03:57.737Z,0.85
2023-06-03T13:06:27.043Z,0.80
2023-06-03T13:08:54.438Z,0.90
2023-06-03T13:11:22.810Z,0.80
2023-06-03T13:13:50.490Z,0.90
2023-06-03T13:16:17.862Z,1.60
2023-06-03T13:18:45.218Z,1.30
2023-06-03T13:21:12.547Z,1.05
2023-06-03T13:23:40.175Z,0.75
2023-06-03T13:26:07.487Z,0.88
2023-06-03T13:28:34.865Z,0.80
2023-06-03T13:31:02.486Z,0.95
2023-06-03T13:33:29.985Z,1.13
2023-06-03T13:35:57.279Z,0.70
2023-06-03T13:38:25.021Z,0.88
2023-06-03T13:40:52.426Z,0.90
2023-06-03T13:43:19.706Z,1.25
2023-06-03T13:45:47.470Z,1.08
2023-06-03T13:48:14.830Z,1.10
2023-06-03T13:50:42.156Z,1.55
2023-06-03T13:53:10.095Z,1.05
2023-06-03T13:55:37.455Z,0.70
2023-06-03T13:58:04.798Z,1.08
2023-06-03T14:00:32.140Z,0.90
2023-06-03T14:02:59.488Z,0.90
2023-06-03T14:05:26.784Z,0.98
2023-06-03T14:07:54.039Z,0.80
2023-06-03T14:10:22.455Z,1.00
2023-06-03T14:12:50.968Z,0.82
2023-06-03T14:15:19.462Z,0.85
2023-06-03T14:17:46.820Z,0.90
2023-06-03T14:20:14.267Z,0.80
2023-06-03T14:22:41.572Z,0.60
2023-06-03T14:25:09.321Z,0.82
2023-06-03T14:27:36.674Z,0.95
2023-06-03T14:30:04.244Z,0.80
2023-06-03T14:32:31.653Z,0.60
2023-06-03T14:35:04.359Z,0.95
2023-06-03T14:37:31.633Z,0.80
2023-06-03T14:39:58.943Z,0.70
2023-06-03T14:42:26.236Z,0.63
2023-06-03T14:45:01.205Z,0.82
2023-06-03T14:47:29.973Z,0.80
2023-06-03T14:49:58.457Z,0.73
2023-06-03T14:52:29.149Z,0.95
2023-06-03T14:54:56.984Z,0.70
2023-06-03T14:57:24.403Z,0.75
2023-06-03T14:59:51.786Z,0.50
2023-06-03T15:02:19.179Z,0.80
2023-06-03T15:04:46.541Z,0.63
2023-06-03T15:07:16.031Z,0.60
2023-06-03T15:09:43.520Z,1.25
2023-06-03T15:12:11.140Z,1.00
2023-06-03T15:14:38.802Z,0.70
2023-06-03T15:17:06.672Z,0.63
2023-06-03T15:19:33.960Z,0.77
2023-06-03T15:22:01.473Z,0.77
2023-06-03T15:24:28.877Z,0.90
2023-06-03T15:26:56.820Z,0.70
2023-06-03T15:29:24.198Z,0.82
2023-06-03T15:31:51.797Z,0.68
2023-06-03T15:34:19.504Z,0.82
2023-06-03T15:36:46.870Z,0.88
2023-06-03T15:39:14.290Z,0.70
2023-06-03T15:41:47.640Z,0.73
2023-06-03T15:44:15.878Z,0.93
2023-06-03T15:46:43.304Z,0.90
2023-06-03T15:49:11.071Z,0.80
2023-06-03T15:51:38.707Z,0.82
2023-06-03T15:54:06.026Z,0.85
2023-06-03T15:56:33.455Z,0.85
2023-06-03T15:59:00.793Z,0.70
2023-06-03T16:01:28.259Z,0.77
2023-06-03T16:03:55.795Z,0.75
2023-06-03T16:06:23.199Z,1.00
2023-06-03T16:08:50.582Z,0.80
2023-06-03T16:11:17.992Z,0.60
2023-06-03T16:13:45.411Z,0.80
2023-06-03T16:16:12.702Z,0.80
2023-06-03T16:18:39.959Z,0.68
2023-06-03T16:21:07.657Z,0.60
2023-06-03T16:23:35.117Z,0.90
2023-06-03T16:26:03.291Z,0.55
2023-06-03T16:28:30.742Z,0.80
2023-06-03T16:30:58.018Z,0.80
2023-06-03T16:33:25.291Z,0.80
2023-06-03T16:35:52.709Z,0.70
2023-06-03T16:38:20.153Z,0.80
2023-06-03T16:40:47.403Z,0.60
2023-06-03T16:43:14.732Z,0.88
2023-06-03T16:45:42.081Z,0.80
2023-06-03T16:48:09.530Z,0.77
2023-06-03T16:50:36.925Z,0.73
2023-06-03T16:53:04.221Z,0.98
2023-06-03T16:55:31.593Z,0.73
2023-06-03T16:58:01.406Z,0.82
2023-06-03T17:00:29.407Z,0.60
2023-06-03T17:02:56.963Z,0.60
2023-06-03T17:05:24.433Z,0.70
2023-06-03T17:07:52.015Z,0.50
2023-06-03T17:10:19.533Z,0.63
2023-06-03T17:12:46.950Z,0.80
2023-06-03T17:15:14.319Z,0.80
2023-06-03T17:17:41.653Z,0.65
2023-06-03T17:20:09.570Z,0.60
2023-06-03T17:22:37.386Z,0.50
2023-06-03T17:25:05.258Z,0.50
2023-06-03T17:27:32.620Z,0.50
2023-06-03T17:29:59.934Z,0.70
2023-06-03T17:32:27.260Z,0.45
2023-06-03T17:34:54.695Z,0.60
2023-06-03T17:37:22.149Z,0.95
2023-06-03T17:39:49.491Z,0.57
2023-06-03T17:42:16.985Z,0.60
2023-06-03T17:44:44.579Z,0.50
2023-06-03T17:47:12.018Z,0.70
2023-06-03T17:49:39.375Z,0.63
2023-06-03T17:52:06.950Z,0.70
2023-06-03T17:54:34.471Z,0.60
2023-06-03T17:57:01.829Z,0.70
2023-06-03T17:59:29.135Z,0.80
2023-06-03T18:01:56.874Z,0.60
2023-06-03T18:04:26.431Z,0.65
2023-06-03T18:06:55.256Z,0.52
2023-06-03T18:09:25.999Z,0.60
2023-06-03T18:11:53.445Z,0.52
2023-06-03T18:14:20.971Z,0.55
2023-06-03T18:16:48.304Z,0.70
2023-06-03T18:19:15.809Z,0.68
2023-06-03T18:21:43.126Z,0.70
2023-06-03T18:24:10.575Z,0.60
2023-06-03T18:26:37.947Z,0.60
2023-06-03T18:29:06.598Z,0.60
2023-06-03T18:31:37.337Z,0.75
2023-06-03T18:34:05.076Z,0.57
2023-06-03T18:36:33.015Z,0.45
2023-06-03T18:39:00.611Z,0.60
2023-06-03T18:41:28.060Z,0.70
2023-06-03T18:43:55.554Z,0.60
2023-06-03T18:46:23.098Z,0.60
2023-06-03T18:48:50.415Z,0.70
2023-06-03T18:51:19.918Z,0.68
2023-06-03T18:53:47.433Z,0.60
2023-06-03T18:56:18.772Z,0.50
2023-06-03T18:58:49.146Z,0.63
2023-06-03T19:01:17.546Z,0.60
2023-06-03T19:03:45.004Z,0.70
2023-06-03T19:06:12.460Z,1.02
2023-06-03T19:08:40.781Z,0.75
2023-06-03T19:11:08.446Z,0.50
2023-06-03T19:13:35.923Z,0.70
2023-06-03T19:16:04.020Z,0.70
2023-06-03T19:18:31.880Z,0.60
2023-06-03T19:20:59.258Z,0.52
2023-06-03T19:23:26.689Z,0.50
2023-06-03T19:25:54.855Z,0.50
2023-06-03T19:28:22.338Z,0.47
2023-06-03T19:30:49.668Z,0.60
2023-06-03T19:33:16.948Z,0.52
2023-06-03T19:35:44.262Z,0.50
2023-06-03T19:38:11.654Z,0.40
2023-06-03T19:40:39.143Z,0.63
2023-06-03T19:43:06.529Z,0.40
2023-06-03T19:45:34.105Z,0.50
2023-06-03T19:48:02.151Z,0.50
2023-06-03T19:50:30.114Z,0.52
2023-06-03T19:52:58.158Z,0.40
2023-06-03T19:55:25.653Z,0.50
2023-06-03T19:57:53.044Z,0.60
2023-06-03T20:00:20.594Z,0.60
2023-06-03T20:02:48.232Z,0.40
2023-06-03T20:05:16.073Z,0.52
2023-06-03T20:07:43.774Z,0.40
2023-06-03T20:10:11.662Z,0.57
2023-06-03T20:12:39.175Z,0.40
2023-06-03T20:15:07.039Z,0.40
2023-06-03T20:17:34.372Z,0.30
2023-06-03T20:20:01.682Z,0.40
2023-06-03T20:22:29.258Z,0.32
2023-06-03T20:24:56.763Z,0.50
2023-06-03T20:27:24.274Z,0.40
2023-06-03T20:29:51.718Z,0.40
2023-06-03T20:32:19.209Z,0.40
2023-06-03T20:34:46.606Z,0.40
2023-06-03T20:37:14.501Z,0.40
2023-06-03T20:39:42.810Z,0.50
2023-06-03T20:42:10.372Z,0.30
2023-06-03T20:44:37.949Z,0.40
2023-06-03T20:47:12.909Z,0.50
2023-06-03T20:49:40.306Z,0.63
2023-06-03T20:52:07.780Z,0.47
2023-06-03T20:54:35.128Z,0.40
2023-06-03T20:57:02.712Z,0.40
2023-06-03T20:59:30.146Z,0.45
2023-06-03T21:01:57.623Z,0.40
2023-06-03T21:04:25.056Z,0.40
2023-06-03T21:06:52.476Z,0.45
2023-06-03T21:09:19.905Z,0.30
2023-06-03T21:11:47.306Z,0.40
2023-06-03T21:14:14.896Z,0.40
2023-06-03T21:16:42.501Z,0.38
2023-06-03T21:19:14.984Z,0.40
2023-06-03T21:21:44.786Z,0.60
2023-06-03T21:24:13.290Z,0.40
2023-06-03T21:26:41.710Z,0.57
2023-06-03T21:29:09.061Z,0.50
2023-06-03T21:31:38.839Z,0.40
2023-06-03T21:34:06.168Z,0.55
2023-06-03T21:36:33.480Z,0.90
2023-06-03T21:39:01.456Z,0.88
2023-06-03T21:41:28.808Z,1.08
2023-06-03T21:43:56.147Z,0.95
2023-06-03T21:46:23.620Z,0.95
2023-06-03T21:48:51.034Z,0.80
2023-06-03T21:51:19.229Z,0.70
2023-06-03T21:53:46.606Z,0.90
2023-06-03T21:56:13.899Z,0.85
2023-06-03T21:58:41.187Z,0.90
2023-06-03T22:01:09.651Z,1.02
2023-06-03T22:03:37.281Z,0.82
2023-06-03T22:06:04.951Z,0.70
2023-06-03T22:08:32.415Z,0.52
2023-06-03T22:10:59.649Z,0.65
2023-06-03T22:13:27.947Z,0.43
2023-06-03T22:15:55.426Z,0.60
2023-06-03T22:18:22.792Z,1.05
2023-06-03T22:20:52.906Z,0.60
2023-06-03T22:23:20.907Z,0.52
2023-06-03T22:25:48.624Z,0.85
2023-06-03T22:28:17.303Z,0.50
2023-06-03T22:30:44.720Z,0.40
2023-06-03T22:33:12.051Z,0.32
2023-06-03T22:35:41.233Z,0.68
2023-06-03T22:38:08.715Z,0.50
2023-06-03T22:40:36.036Z,0.50
2023-06-03T22:43:03.442Z,0.50
2023-06-03T22:45:30.889Z,0.70
2023-06-03T22:47:58.105Z,0.50
2023-06-03T22:50:25.492Z,0.60
2023-06-03T22:52:52.821Z,0.57
2023-06-03T22:55:21.735Z,1.05
2023-06-03T22:57:49.092Z,0.40
2023-06-03T23:00:16.834Z,0.50
2023-06-03T23:02:44.221Z,0.45
2023-06-03T23:05:11.560Z,0.43
2023-06-03T23:07:38.995Z,0.50
2023-06-03T23:10:06.827Z,0.60
2023-06-03T23:12:34.196Z,0.50
2023-06-03T23:15:02.321Z,0.40
2023-06-03T23:17:29.605Z,0.57
2023-06-03T23:19:56.921Z,0.50
2023-06-03T23:22:24.194Z,0.65
2023-06-03T23:24:51.472Z,0.20
2023-06-03T23:27:18.777Z,0.60
2023-06-03T23:29:46.513Z,0.40
2023-06-03T23:32:13.826Z,0.50
2023-06-03T23:34:41.169Z,0.93
2023-06-03T23:37:08.422Z,0.60
2023-06-03T23:39:35.724Z,0.73
2023-06-03T23:42:03.211Z,0.57
2023-06-03T23:44:30.499Z,0.60
2023-06-03T23:46:57.720Z,0.60
2023-06-03T23:49:25.544Z,0.32
2023-06-03T23:51:52.810Z,0.50
2023-06-03T23:54:20.120Z,0.60
2023-06-03T23:56:47.376Z,0.50
2023-06-03T23:59:14.628Z,0.55
